createdAt,value
2022-10-04T00:01:48.325Z,99.90
2022-10-04T00:04:17.376Z,99.90
2022-10-04T00:06:44.958Z,99.90
2022-10-04T00:09:14.179Z,99.90
2022-10-04T00:11:45.544Z,99.90
2022-10-04T00:14:16.319Z,99.90
2022-10-04T00:16:44.019Z,99.90
2022-10-04T00:19:24.875Z,99.90
2022-10-04T00:22:12.510Z,99.90
2022-10-04T00:24:59.322Z,99.90
2022-10-04T00:27:28.054Z,99.90
2022-10-04T00:30:14.966Z,99.90
2022-10-04T00:32:59.280Z,99.90
2022-10-04T00:35:44.888Z,99.90
2022-10-04T00:38:14.331Z,99.90
2022-10-04T00:40:46.399Z,99.90
2022-10-04T00:43:17.107Z,99.90
2022-10-04T00:45:46.192Z,99.90
2022-10-04T00:48:31.454Z,99.90
2022-10-04T00:51:01.950Z,99.90
2022-10-04T00:53:38.901Z,99.90
2022-10-04T00:56:08.141Z,99.90
2022-10-04T00:58:40.923Z,99.90
2022-10-04T01:01:08.978Z,99.90
2022-10-04T01:03:38.285Z,99.90
2022-10-04T01:06:06.326Z,99.90
2022-10-04T01:08:35.210Z,99.90
2022-10-04T01:11:03.963Z,99.90
2022-10-04T01:13:35.153Z,99.90
2022-10-04T01:16:04.493Z,99.90
2022-10-04T01:18:32.327Z,99.90
2022-10-04T01:21:00.293Z,99.90
2022-10-04T01:23:35.964Z,99.90
2022-10-04T01:26:03.800Z,99.90
2022-10-04T01:28:30.928Z,99.90
2022-10-04T01:30:58.046Z,99.90
2022-10-04T01:33:25.239Z,99.90
2022-10-04T01:35:52.111Z,99.90
2022-10-04T01:38:18.938Z,99.90
2022-10-04T01:40:51.130Z,99.90
2022-10-04T01:43:25.376Z,99.90
2022-10-04T01:45:55.858Z,99.90
2022-10-04T01:48:24.539Z,99.90
2022-10-04T01:50:55.645Z,99.90
2022-10-04T01:53:24.327Z,99.90
2022-10-04T01:55:54.405Z,99.90
2022-10-04T01:58:25.229Z,99.90
2022-10-04T02:00:55.376Z,99.90
2022-10-04T02:03:25.383Z,99.90
2022-10-04T02:05:54.239Z,99.90
2022-10-04T02:08:24.827Z,99.90
2022-10-04T02:10:54.933Z,99.90
2022-10-04T02:13:22.548Z,99.90
2022-10-04T02:15:49.904Z,99.90
2022-10-04T02:18:18.148Z,99.90
2022-10-04T02:20:46.007Z,99.90
2022-10-04T02:23:13.127Z,99.90
2022-10-04T02:25:39.928Z,99.90
2022-10-04T02:28:11.593Z,99.90
2022-10-04T02:30:39.470Z,99.90
2022-10-04T02:33:06.488Z,99.90
2022-10-04T02:35:35.739Z,99.90
2022-10-04T02:38:09.105Z,99.90
2022-10-04T02:40:40.698Z,99.90
2022-10-04T02:43:12.063Z,99.90
2022-10-04T02:45:43.099Z,99.90
2022-10-04T02:48:19.248Z,99.90
2022-10-04T02:50:49.111Z,99.90
2022-10-04T02:53:19.495Z,99.90
2022-10-04T02:55:47.559Z,99.90
2022-10-04T02:58:18.335Z,99.90
2022-10-04T03:00:46.688Z,99.90
2022-10-04T03:03:19.736Z,99.90
2022-10-04T03:05:52.911Z,99.90
2022-10-04T03:08:20.063Z,99.90
2022-10-04T03:10:46.875Z,99.90
2022-10-04T03:13:14.043Z,99.90
2022-10-04T03:15:42.907Z,99.90
2022-10-04T03:18:10.008Z,99.90
2022-10-04T03:20:37.438Z,99.90
2022-10-04T03:23:04.495Z,99.90
2022-10-04T03:25:38.008Z,99.90
2022-10-04T03:28:05.166Z,99.90
2022-10-04T03:30:32.307Z,99.90
2022-10-04T03:33:00.671Z,99.90
2022-10-04T03:35:28.632Z,99.90
2022-10-04T03:37:56.907Z,99.90
2022-10-04T03:40:27.371Z,99.90
2022-10-04T03:42:54.963Z,99.90
2022-10-04T03:45:22.426Z,99.90
2022-10-04T03:47:50.520Z,99.90
2022-10-04T03:50:21.332Z,99.90
2022-10-04T03:52:50.711Z,99.90
2022-10-04T03:55:18.435Z,99.90
2022-10-04T03:57:45.369Z,99.90
2022-10-04T04:00:14.872Z,99.90
2022-10-04T04:02:46.056Z,99.90
2022-10-04T04:05:16.471Z,99.90
2022-10-04T04:07:45.823Z,99.90
2022-10-04T04:10:17.601Z,99.90
2022-10-04T04:12:47.983Z,99.90
2022-10-04T04:15:15.876Z,99.90
2022-10-04T04:17:44.118Z,99.90
2022-10-04T04:20:22.379Z,99.90
2022-10-04T04:22:59.342Z,99.90
2022-10-04T04:25:27.159Z,99.90
2022-10-04T04:27:56.372Z,99.90
2022-10-04T04:30:23.247Z,99.90
2022-10-04T04:32:51.248Z,99.90
2022-10-04T04:35:22.114Z,99.90
2022-10-04T04:38:04.078Z,99.90
2022-10-04T04:40:30.991Z,99.90
2022-10-04T04:42:59.004Z,99.90
2022-10-04T04:45:29.445Z,99.90
2022-10-04T04:47:57.310Z,99.90
2022-10-04T04:50:25.127Z,99.90
2022-10-04T04:52:59.008Z,99.90
2022-10-04T04:55:28.246Z,99.90
2022-10-04T04:57:56.416Z,99.90
2022-10-04T05:00:27.656Z,99.90
2022-10-04T05:02:58.603Z,99.90
2022-10-04T05:05:27.140Z,99.90
2022-10-04T05:08:08.629Z,99.90
2022-10-04T05:10:37.845Z,99.90
2022-10-04T05:13:05.205Z,99.90
2022-10-04T05:15:33.525Z,99.90
2022-10-04T05:18:00.939Z,99.90
2022-10-04T05:20:28.644Z,99.90
2022-10-04T05:22:55.971Z,99.90
2022-10-04T05:25:26.914Z,99.90
2022-10-04T05:27:56.346Z,99.90
2022-10-04T05:30:33.252Z,99.90
2022-10-04T05:33:01.160Z,99.90
2022-10-04T05:35:29.805Z,99.90
2022-10-04T05:38:02.620Z,99.90
2022-10-04T05:40:33.660Z,99.90
2022-10-04T05:43:03.181Z,99.90
2022-10-04T05:45:31.641Z,99.90
2022-10-04T05:48:01.601Z,99.90
2022-10-04T05:50:31.567Z,99.90
2022-10-04T05:53:21.141Z,99.90
2022-10-04T05:55:58.226Z,99.90
2022-10-04T05:58:47.333Z,99.90
2022-10-04T06:01:36.518Z,99.90
2022-10-04T06:04:31.216Z,99.90
2022-10-04T06:07:00.661Z,99.90
2022-10-04T06:09:38.454Z,99.90
2022-10-04T06:12:08.261Z,99.90
2022-10-04T06:14:51.045Z,99.90
2022-10-04T06:17:24.471Z,99.90
2022-10-04T06:20:08.092Z,99.90
2022-10-04T06:22:43.140Z,99.90
2022-10-04T06:25:15.646Z,99.90
2022-10-04T06:27:45.283Z,99.90
2022-10-04T06:30:16.416Z,99.90
2022-10-04T06:32:58.004Z,99.90
2022-10-04T06:36:03.475Z,99.90
2022-10-04T06:38:37.915Z,99.90
2022-10-04T06:41:12.168Z,99.90
2022-10-04T06:43:57.850Z,99.90
2022-10-04T06:46:32.621Z,99.90
2022-10-04T06:49:14.327Z,99.90
2022-10-04T06:51:49.890Z,99.90
2022-10-04T06:54:24.910Z,99.90
2022-10-04T06:56:59.313Z,99.90
2022-10-04T06:59:36.399Z,99.90
2022-10-04T07:02:06.787Z,99.90
2022-10-04T07:05:06.502Z,99.90
2022-10-04T07:07:35.592Z,99.90
2022-10-04T07:10:09.258Z,99.90
2022-10-04T07:12:38.770Z,99.90
2022-10-04T07:15:10.317Z,99.90
2022-10-04T07:17:40.412Z,99.90
2022-10-04T07:20:18.212Z,99.90
2022-10-04T07:22:51.513Z,99.90
2022-10-04T07:25:22.760Z,99.90
2022-10-04T07:28:15.314Z,99.90
2022-10-04T07:30:48.524Z,99.90
2022-10-04T07:33:21.027Z,99.90
2022-10-04T07:35:51.905Z,99.90
2022-10-04T07:38:25.205Z,99.90
2022-10-04T07:41:00.761Z,99.90
2022-10-04T07:43:29.908Z,99.90
2022-10-04T07:46:03.045Z,99.90
2022-10-04T07:48:31.248Z,99.90
2022-10-04T07:51:02.075Z,99.90
2022-10-04T07:53:31.690Z,99.90
2022-10-04T07:56:02.681Z,99.90
2022-10-04T07:58:35.824Z,99.90
2022-10-04T08:01:04.801Z,99.90
2022-10-04T08:03:50.662Z,99.90
2022-10-04T08:06:19.832Z,99.90
2022-10-04T08:08:56.662Z,99.20
2022-10-04T08:11:27.554Z,98.60
2022-10-04T08:13:57.878Z,98.70
2022-10-04T08:16:35.063Z,98.30
2022-10-04T08:19:23.425Z,98.40
2022-10-04T08:22:01.125Z,96.80
2022-10-04T08:24:35.548Z,96.00
2022-10-04T08:27:16.724Z,95.50
2022-10-04T08:29:58.192Z,95.40
2022-10-04T08:32:32.205Z,95.10
2022-10-04T08:35:23.270Z,94.60
2022-10-04T08:38:24.130Z,95.20
2022-10-04T08:41:33.079Z,95.90
2022-10-04T08:44:42.944Z,95.70
2022-10-04T08:47:22.248Z,94.80
2022-10-04T08:49:55.160Z,94.00
2022-10-04T08:53:05.373Z,92.50
2022-10-04T08:55:45.015Z,91.80
2022-10-04T08:58:36.902Z,91.60
2022-10-04T09:01:17.090Z,90.20
2022-10-04T09:04:01.708Z,89.90
2022-10-04T09:06:43.302Z,89.80
2022-10-04T09:09:44.624Z,89.70
2022-10-04T09:12:20.077Z,89.70
2022-10-04T09:14:57.041Z,88.10
2022-10-04T09:17:30.370Z,89.30
2022-10-04T09:20:33.465Z,89.70
2022-10-04T09:23:00.791Z,88.60
2022-10-04T09:25:56.432Z,88.60
2022-10-04T09:29:11.454Z,89.30
2022-10-04T09:31:49.743Z,89.90
2022-10-04T09:34:31.615Z,89.40
2022-10-04T09:37:17.255Z,87.90
2022-10-04T09:39:59.017Z,86.50
2022-10-04T09:42:56.801Z,84.00
2022-10-04T09:45:41.529Z,82.10
2022-10-04T09:48:29.769Z,84.30
2022-10-04T09:51:25.282Z,81.40
2022-10-04T09:54:10.809Z,83.30
2022-10-04T09:56:52.934Z,77.50
2022-10-04T09:59:36.616Z,77.80
2022-10-04T10:02:38.925Z,78.30
2022-10-04T10:05:22.122Z,76.50
2022-10-04T10:07:53.262Z,80.50
2022-10-04T10:10:43.127Z,79.10
2022-10-04T10:13:42.574Z,75.50
2022-10-04T10:16:29.780Z,78.20
2022-10-04T10:19:13.002Z,79.50
2022-10-04T10:21:45.999Z,80.30
2022-10-04T10:24:24.822Z,79.30
2022-10-04T10:27:02.349Z,80.40
2022-10-04T10:29:47.072Z,81.00
2022-10-04T10:32:27.231Z,82.70
2022-10-04T10:35:11.976Z,82.20
2022-10-04T10:37:45.349Z,82.90
2022-10-04T10:40:31.573Z,80.80
2022-10-04T10:43:09.379Z,82.60
2022-10-04T10:45:45.592Z,83.20
2022-10-04T10:48:14.844Z,82.00
2022-10-04T10:51:00.076Z,80.40
2022-10-04T10:53:45.181Z,79.20
2022-10-04T10:56:30.072Z,75.50
2022-10-04T10:59:31.067Z,78.10
2022-10-04T11:02:15.573Z,79.60
2022-10-04T11:04:54.684Z,81.20
2022-10-04T11:07:32.534Z,77.20
2022-10-04T11:10:17.219Z,75.70
2022-10-04T11:13:04.836Z,76.90
2022-10-04T11:15:50.279Z,76.40
2022-10-04T11:18:33.747Z,76.50
2022-10-04T11:21:14.535Z,75.20
2022-10-04T11:24:00.368Z,71.30
2022-10-04T11:26:40.161Z,72.40
2022-10-04T11:29:12.331Z,71.00
2022-10-04T11:31:53.593Z,69.60
2022-10-04T11:34:50.917Z,72.90
2022-10-04T11:37:21.774Z,71.80
2022-10-04T11:40:09.129Z,71.00
2022-10-04T11:42:48.404Z,69.70
2022-10-04T11:45:27.268Z,70.80
2022-10-04T11:47:59.091Z,74.00
2022-10-04T11:50:38.939Z,72.90
2022-10-04T11:53:21.933Z,77.90
2022-10-04T11:55:58.432Z,77.40
2022-10-04T11:58:29.814Z,76.90
2022-10-04T12:01:14.156Z,74.30
2022-10-04T12:03:58.729Z,74.00
2022-10-04T12:06:35.016Z,76.60
2022-10-04T12:09:06.088Z,78.20
2022-10-04T12:12:13.115Z,79.50
2022-10-04T12:14:50.931Z,80.30
2022-10-04T12:17:39.635Z,81.60
2022-10-04T12:20:28.726Z,81.40
2022-10-04T12:23:05.633Z,81.00
2022-10-04T12:25:47.796Z,79.30
2022-10-04T12:28:32.534Z,77.50
2022-10-04T12:31:17.202Z,74.50
2022-10-04T12:33:48.340Z,75.50
2022-10-04T12:36:24.636Z,76.10
2022-10-04T12:38:56.607Z,75.00
2022-10-04T12:41:27.948Z,74.20
2022-10-04T12:44:00.676Z,73.40
2022-10-04T12:46:36.529Z,74.20
2022-10-04T12:49:10.944Z,74.70
2022-10-04T12:51:45.451Z,72.20
2022-10-04T12:54:20.968Z,70.70
2022-10-04T12:56:51.102Z,69.10
2022-10-04T12:59:35.573Z,69.30
2022-10-04T13:02:07.055Z,72.00
2022-10-04T13:04:39.002Z,72.70
2022-10-04T13:07:23.695Z,74.70
2022-10-04T13:10:22.470Z,77.30
2022-10-04T13:13:05.566Z,79.60
2022-10-04T13:18:26.416Z,83.10
2022-10-04T13:20:57.043Z,83.90
2022-10-04T13:23:31.751Z,83.20
2022-10-04T13:26:16.797Z,84.60
2022-10-04T13:28:48.513Z,86.70
2022-10-04T13:31:23.916Z,85.20
2022-10-04T13:33:56.549Z,86.00
2022-10-04T13:36:29.431Z,82.90
2022-10-04T13:39:07.478Z,82.20
2022-10-04T13:41:43.059Z,83.30
2022-10-04T13:44:30.337Z,83.50
2022-10-04T13:47:06.502Z,84.40
2022-10-04T13:49:42.020Z,84.40
2022-10-04T13:52:34.712Z,86.30
2022-10-04T13:55:33.453Z,86.10
2022-10-04T13:58:11.925Z,84.90
2022-10-04T14:00:57.007Z,86.00
2022-10-04T14:03:30.801Z,85.30
2022-10-04T14:06:18.677Z,85.70
2022-10-04T14:09:01.134Z,87.50
2022-10-04T14:11:43.253Z,86.70
2022-10-04T14:14:29.122Z,88.10
2022-10-04T14:17:03.307Z,87.10
2022-10-04T14:19:44.007Z,87.90
2022-10-04T14:22:34.610Z,88.70
2022-10-04T14:25:26.562Z,87.90
2022-10-04T14:28:16.963Z,89.20
2022-10-04T14:30:57.497Z,88.80
2022-10-04T14:33:35.220Z,86.90
2022-10-04T14:36:19.785Z,86.40
2022-10-04T14:38:53.761Z,87.10
2022-10-04T14:41:33.773Z,86.90
2022-10-04T14:44:12.098Z,87.80
2022-10-04T14:46:45.944Z,87.10
2022-10-04T14:49:16.931Z,86.30
2022-10-04T14:51:50.145Z,85.30
2022-10-04T14:54:29.050Z,86.30
2022-10-04T14:57:00.631Z,86.50
2022-10-04T14:59:40.273Z,87.90
2022-10-04T15:02:13.539Z,88.70
2022-10-04T15:04:55.273Z,87.20
2022-10-04T15:07:24.519Z,88.00
2022-10-04T15:09:54.517Z,87.80
2022-10-04T15:12:51.874Z,88.10
2022-10-04T15:15:36.937Z,88.60
2022-10-04T15:18:11.743Z,88.10
2022-10-04T15:20:48.601Z,87.90
2022-10-04T15:23:16.836Z,87.90
2022-10-04T15:25:46.927Z,89.00
2022-10-04T15:28:26.909Z,89.10
2022-10-04T15:30:56.226Z,89.70
2022-10-04T15:33:32.931Z,90.20
2022-10-04T15:36:13.530Z,90.50
2022-10-04T15:38:46.984Z,90.20
2022-10-04T15:41:16.671Z,90.50
2022-10-04T15:43:44.281Z,90.60
2022-10-04T15:46:44.723Z,90.60
2022-10-04T15:49:36.958Z,90.80
2022-10-04T15:52:10.776Z,90.90
2022-10-04T15:54:44.437Z,91.50
2022-10-04T15:57:20.334Z,91.30
2022-10-04T15:59:53.455Z,91.50
2022-10-04T16:02:41.335Z,91.70
2022-10-04T16:05:17.189Z,91.90
2022-10-04T16:08:03.667Z,92.20
2022-10-04T16:10:48.170Z,92.30
2022-10-04T16:13:34.164Z,92.10
2022-10-04T16:16:33.807Z,92.50
2022-10-04T16:19:10.824Z,92.80
2022-10-04T16:33:42.560Z,93.10
2022-10-04T16:36:13.134Z,93.60
2022-10-04T16:39:06.998Z,93.80
2022-10-04T16:41:36.771Z,94.00
2022-10-04T16:44:06.993Z,94.10
2022-10-04T16:46:37.654Z,93.90
2022-10-04T16:49:18.801Z,93.90
2022-10-04T16:51:58.100Z,94.20
2022-10-04T16:54:34.364Z,94.60
2022-10-04T16:57:28.589Z,94.80
2022-10-04T16:59:56.458Z,94.90
2022-10-04T17:02:33.761Z,95.20
2022-10-04T17:05:14.915Z,95.60
2022-10-04T17:07:51.526Z,95.50
2022-10-04T17:10:21.132Z,95.90
2022-10-04T17:12:51.400Z,96.10
2022-10-04T17:15:31.470Z,96.20
2022-10-04T17:18:04.950Z,96.00
2022-10-04T17:20:45.545Z,96.30
2022-10-04T17:23:20.634Z,96.40
2022-10-04T17:25:52.233Z,96.50
2022-10-04T17:28:26.093Z,96.60
2022-10-04T17:30:55.437Z,96.70
2022-10-04T17:33:27.472Z,96.80
2022-10-04T17:36:00.681Z,97.00
2022-10-04T17:38:30.835Z,97.00
2022-10-04T17:41:00.571Z,97.10
2022-10-04T17:43:31.877Z,97.00
2022-10-04T17:46:08.622Z,97.10
2022-10-04T17:49:00.718Z,97.40
2022-10-04T17:52:04.419Z,97.80
2022-10-04T17:54:59.591Z,97.80
2022-10-04T17:57:31.029Z,98.10
2022-10-04T18:00:05.889Z,98.20
2022-10-04T18:02:45.594Z,98.30
2022-10-04T18:05:17.860Z,98.70
2022-10-04T18:07:48.242Z,98.80
2022-10-04T18:10:22.369Z,99.00
2022-10-04T18:12:55.937Z,99.10
2022-10-04T18:15:26.675Z,98.80
2022-10-04T18:18:06.651Z,98.80
2022-10-04T18:20:35.195Z,98.60
2022-10-04T18:23:12.448Z,98.90
2022-10-04T18:25:41.325Z,98.70
2022-10-04T18:28:13.561Z,98.50
2022-10-04T18:30:54.149Z,98.90
2022-10-04T18:33:26.077Z,98.60
2022-10-04T18:36:00.124Z,98.30
2022-10-04T18:38:28.415Z,98.10
2022-10-04T18:40:58.547Z,98.30
2022-10-04T18:43:30.406Z,98.30
2022-10-04T18:46:01.422Z,98.30
2022-10-04T18:48:36.863Z,98.40
2022-10-04T18:51:20.975Z,98.50
2022-10-04T18:53:50.406Z,98.60
2022-10-04T18:56:19.191Z,98.50
2022-10-04T18:59:09.769Z,98.60
2022-10-04T19:02:03.917Z,98.50
2022-10-04T19:04:38.068Z,98.60
2022-10-04T19:07:09.293Z,99.30
2022-10-04T19:09:44.428Z,98.70
2022-10-04T19:12:15.865Z,98.80
2022-10-04T19:14:45.958Z,99.00
2022-10-04T19:17:19.014Z,98.80
2022-10-04T19:19:51.717Z,99.10
2022-10-04T19:22:22.216Z,99.40
2022-10-04T19:24:58.721Z,99.70
2022-10-04T19:27:29.253Z,99.50
2022-10-04T19:30:14.064Z,99.60
2022-10-04T19:32:57.419Z,99.50
2022-10-04T19:35:35.003Z,99.70
2022-10-04T19:38:05.639Z,99.60
2022-10-04T19:40:37.353Z,99.90
2022-10-04T19:43:08.612Z,99.90
2022-10-04T19:45:43.076Z,99.90
2022-10-04T19:48:13.638Z,99.90
2022-10-04T19:50:42.540Z,99.90
2022-10-04T19:53:14.260Z,99.90
2022-10-04T19:55:44.828Z,99.90
2022-10-04T20:01:12.558Z,99.90
2022-10-04T20:03:40.252Z,99.90
2022-10-04T20:06:07.571Z,99.90
2022-10-04T20:08:51.957Z,99.90
2022-10-04T20:11:20.308Z,99.90
2022-10-04T20:13:52.748Z,99.90
2022-10-04T20:16:54.131Z,99.90
2022-10-04T20:19:36.673Z,99.90
2022-10-04T20:22:18.549Z,99.90
2022-10-04T20:24:49.896Z,99.90
2022-10-04T20:27:36.239Z,99.90
2022-10-04T20:30:04.881Z,99.90
2022-10-04T20:32:50.441Z,99.90
2022-10-04T20:35:32.264Z,99.90
2022-10-04T20:38:31.623Z,99.90
2022-10-04T20:40:59.225Z,99.90
2022-10-04T20:43:26.663Z,99.90
2022-10-04T20:45:55.439Z,99.90
2022-10-04T20:48:23.198Z,99.90
2022-10-04T20:50:50.764Z,99.90
2022-10-04T20:53:20.658Z,99.90
2022-10-04T20:55:48.270Z,99.90
2022-10-04T20:58:24.583Z,99.90
2022-10-04T21:00:52.538Z,99.90
2022-10-04T21:03:19.678Z,99.90
2022-10-04T21:05:58.441Z,99.90
2022-10-04T21:08:27.883Z,99.90
2022-10-04T21:11:05.390Z,99.90
2022-10-04T21:13:41.589Z,99.90
2022-10-04T21:16:08.710Z,99.90
2022-10-04T21:18:35.578Z,99.90
2022-10-04T21:21:02.726Z,99.90
2022-10-04T21:23:33.437Z,99.90
2022-10-04T21:26:23.084Z,99.90
2022-10-04T21:28:52.684Z,99.90
2022-10-04T21:31:19.623Z,99.90
2022-10-04T21:33:46.603Z,99.90
2022-10-04T21:36:13.542Z,99.90
2022-10-04T21:38:41.769Z,99.90
2022-10-04T21:41:09.201Z,99.90
2022-10-04T21:43:36.278Z,99.90
2022-10-04T21:46:03.239Z,99.90
2022-10-04T21:48:30.151Z,99.90
2022-10-04T21:50:57.312Z,99.90
2022-10-04T21:53:24.203Z,99.90
2022-10-04T21:55:52.573Z,99.90
2022-10-04T21:58:19.428Z,99.90
2022-10-04T22:00:46.604Z,99.90
2022-10-04T22:03:13.452Z,99.90
2022-10-04T22:05:40.618Z,99.90
2022-10-04T22:08:07.515Z,99.90
2022-10-04T22:10:34.521Z,99.90
2022-10-04T22:13:02.701Z,99.90
2022-10-04T22:15:29.565Z,99.90
2022-10-04T22:17:56.883Z,99.90
2022-10-04T22:20:24.456Z,99.90
2022-10-04T22:22:51.428Z,99.90
2022-10-04T22:25:20.272Z,99.90
2022-10-04T22:27:47.634Z,99.90
2022-10-04T22:30:29.931Z,99.90
2022-10-04T22:32:59.034Z,99.90
2022-10-04T22:35:28.861Z,99.90
2022-10-04T22:37:55.814Z,99.90
2022-10-04T22:40:23.696Z,99.90
2022-10-04T22:42:51.755Z,99.90
2022-10-04T22:45:21.607Z,99.90
2022-10-04T22:47:48.750Z,99.90
2022-10-04T22:50:26.221Z,99.90
2022-10-04T22:52:53.147Z,99.90
2022-10-04T22:55:20.399Z,99.90
2022-10-04T22:57:47.364Z,99.90
2022-10-04T23:00:14.244Z,99.90
2022-10-04T23:02:41.368Z,99.90
2022-10-04T23:05:11.706Z,99.90
2022-10-04T23:07:39.960Z,99.90
2022-10-04T23:10:07.453Z,99.90
2022-10-04T23:12:34.269Z,99.90
2022-10-04T23:15:01.409Z,99.90
2022-10-04T23:17:29.275Z,99.90
2022-10-04T23:19:56.862Z,99.90
2022-10-04T23:22:26.778Z,99.90
2022-10-04T23:24:55.600Z,99.90
2022-10-04T23:27:23.098Z,99.90
2022-10-04T23:29:53.741Z,99.90
2022-10-04T23:32:20.919Z,99.90
2022-10-04T23:34:52.966Z,99.90
2022-10-04T23:37:25.592Z,99.90
2022-10-04T23:39:52.394Z,99.90
2022-10-04T23:42:21.452Z,99.90
2022-10-04T23:44:49.643Z,99.90
2022-10-04T23:47:17.806Z,99.90
2022-10-04T23:49:45.609Z,99.90
2022-10-04T23:52:16.359Z,99.90
2022-10-04T23:54:43.259Z,99.90
2022-10-04T23:57:11.051Z,99.90
2022-10-04T23:59:39.819Z,99.90
